createdAt,value
2017-09-17T00:01:32.508Z,21.30
2017-09-17T00:04:00.311Z,22.40
2017-09-17T00:06:28.148Z,24.60
2017-09-17T00:08:55.973Z,22.23
2017-09-17T00:11:23.812Z,22.37
2017-09-17T00:13:51.645Z,25.20
2017-09-17T00:16:19.449Z,23.97
2017-09-17T00:18:47.251Z,24.03
2017-09-17T00:21:15.844Z,23.40
2017-09-17T00:23:43.652Z,21.30
2017-09-17T00:26:11.485Z,22.37
2017-09-17T00:28:39.298Z,22.80
2017-09-17T00:31:07.130Z,20.60
2017-09-17T00:33:34.937Z,22.77
2017-09-17T00:36:02.760Z,20.90
2017-09-17T00:38:30.565Z,21.20
2017-09-17T00:40:58.361Z,21.27
2017-09-17T00:43:26.164Z,21.67
2017-09-17T00:45:53.993Z,22.47
2017-09-17T00:48:21.809Z,22.00
2017-09-17T00:50:49.616Z,21.67
2017-09-17T00:53:17.437Z,21.47
2017-09-17T00:55:45.233Z,20.17
2017-09-17T00:58:13.054Z,19.83
2017-09-17T01:00:40.860Z,22.10
2017-09-17T01:03:08.683Z,22.30
2017-09-17T01:05:36.496Z,19.83
2017-09-17T01:08:04.328Z,21.97
2017-09-17T01:10:32.137Z,21.80
2017-09-17T01:12:59.949Z,20.47
2017-09-17T01:15:27.795Z,22.20
2017-09-17T01:17:55.601Z,22.90
2017-09-17T01:20:23.445Z,22.20
2017-09-17T01:22:52.464Z,21.40
2017-09-17T01:25:20.276Z,20.40
2017-09-17T01:27:48.088Z,23.77
2017-09-17T01:30:15.900Z,23.40
2017-09-17T01:32:43.729Z,22.93
2017-09-17T01:35:11.558Z,23.37
2017-09-17T01:37:39.376Z,25.77
2017-09-17T01:40:07.177Z,24.20
2017-09-17T01:42:34.996Z,21.53
2017-09-17T01:45:02.812Z,22.03
2017-09-17T01:47:30.649Z,22.60
2017-09-17T01:49:58.525Z,23.20
2017-09-17T01:52:26.340Z,23.50
2017-09-17T01:54:54.147Z,20.23
2017-09-17T01:57:21.997Z,21.80
2017-09-17T01:59:49.821Z,22.33
2017-09-17T02:02:17.651Z,23.60
2017-09-17T02:04:45.486Z,22.63
2017-09-17T02:07:13.326Z,21.20
2017-09-17T02:09:41.165Z,21.83
2017-09-17T02:12:09.031Z,22.80
2017-09-17T02:14:36.850Z,23.10
2017-09-17T02:17:04.672Z,23.70
2017-09-17T02:19:32.526Z,22.50
2017-09-17T02:22:00.348Z,23.07
2017-09-17T02:24:28.185Z,22.30
2017-09-17T02:26:55.997Z,23.80
2017-09-17T02:29:23.847Z,25.50
2017-09-17T02:31:51.666Z,21.90
2017-09-17T02:34:19.485Z,24.10
2017-09-17T02:36:47.337Z,22.77
2017-09-17T02:39:15.158Z,24.00
2017-09-17T02:41:42.969Z,23.63
2017-09-17T02:44:10.904Z,21.83
2017-09-17T02:46:38.717Z,21.07
2017-09-17T02:49:06.533Z,20.07
2017-09-17T02:51:34.377Z,20.63
2017-09-17T02:54:02.205Z,22.27
2017-09-17T02:56:30.027Z,21.17
2017-09-17T02:58:57.871Z,20.97
2017-09-17T03:01:25.696Z,24.03
2017-09-17T03:03:53.509Z,22.80
2017-09-17T03:06:21.333Z,22.57
2017-09-17T03:08:49.148Z,22.37
2017-09-17T03:11:16.973Z,25.40
2017-09-17T03:13:44.774Z,22.93
2017-09-17T03:16:12.597Z,21.80
2017-09-17T03:18:40.417Z,21.80
2017-09-17T03:21:08.216Z,22.93
2017-09-17T03:23:36.028Z,22.60
2017-09-17T03:26:03.836Z,20.67
2017-09-17T03:28:31.660Z,21.33
2017-09-17T03:30:59.518Z,20.60
2017-09-17T03:33:27.361Z,20.47
2017-09-17T03:35:55.216Z,19.60
2017-09-17T03:38:23.040Z,20.43
2017-09-17T03:40:50.841Z,19.43
2017-09-17T03:43:18.693Z,21.07
2017-09-17T03:45:46.509Z,21.03
2017-09-17T03:48:14.341Z,21.17
2017-09-17T03:50:42.178Z,20.53
2017-09-17T03:53:10.000Z,18.27
2017-09-17T03:55:37.821Z,22.20
2017-09-17T03:58:05.631Z,19.40
2017-09-17T04:00:33.457Z,20.70
2017-09-17T04:03:01.417Z,18.57
2017-09-17T04:05:29.255Z,19.67
2017-09-17T04:07:57.088Z,18.87
2017-09-17T04:10:24.902Z,21.63
2017-09-17T04:12:52.704Z,21.53
2017-09-17T04:15:20.577Z,20.40
2017-09-17T04:17:48.390Z,20.37
2017-09-17T04:20:16.240Z,20.30
2017-09-17T04:22:44.070Z,22.53
2017-09-17T04:25:11.902Z,20.70
2017-09-17T04:27:39.713Z,21.07
2017-09-17T04:30:07.525Z,21.10
2017-09-17T04:32:35.345Z,21.70
2017-09-17T04:35:03.189Z,21.13
2017-09-17T04:37:31.001Z,21.77
2017-09-17T04:39:58.814Z,18.80
2017-09-17T04:42:26.655Z,23.40
2017-09-17T04:44:54.473Z,21.80
2017-09-17T04:47:22.318Z,20.97
2017-09-17T04:49:50.125Z,20.50
2017-09-17T04:52:17.945Z,19.70
2017-09-17T04:54:45.745Z,21.00
2017-09-17T04:57:13.577Z,19.30
2017-09-17T04:59:41.420Z,19.63
2017-09-17T05:02:09.261Z,19.57
2017-09-17T05:04:37.071Z,19.80
2017-09-17T05:07:04.889Z,19.40
2017-09-17T05:09:32.720Z,21.20
2017-09-17T05:12:00.565Z,21.70
2017-09-17T05:14:28.405Z,21.47
2017-09-17T05:16:56.261Z,21.63
2017-09-17T05:19:24.081Z,21.30
2017-09-17T05:21:51.900Z,22.60
2017-09-17T05:24:19.727Z,19.67
2017-09-17T05:26:47.517Z,21.13
2017-09-17T05:29:15.336Z,19.40
2017-09-17T05:31:43.142Z,19.37
2017-09-17T05:34:10.972Z,20.80
2017-09-17T05:36:38.836Z,19.50
2017-09-17T05:39:06.684Z,20.40
2017-09-17T05:41:34.548Z,20.10
2017-09-17T05:44:02.472Z,18.10
2017-09-17T05:46:30.311Z,18.63
2017-09-17T05:48:58.170Z,19.40
2017-09-17T05:51:26.030Z,18.30
2017-09-17T05:53:53.853Z,19.10
2017-09-17T05:56:21.667Z,17.33
2017-09-17T05:58:49.502Z,16.97
2017-09-17T06:01:17.321Z,17.27
2017-09-17T06:03:45.142Z,17.33
2017-09-17T06:06:12.959Z,17.73
2017-09-17T06:08:40.773Z,16.53
2017-09-17T06:11:08.588Z,18.17
2017-09-17T06:13:36.400Z,17.07
2017-09-17T06:16:04.222Z,15.80
2017-09-17T06:18:32.053Z,17.23
2017-09-17T06:20:59.914Z,15.67
2017-09-17T06:23:27.743Z,18.03
2017-09-17T06:25:55.557Z,17.47
2017-09-17T06:28:23.376Z,16.77
2017-09-17T06:30:51.205Z,15.10
2017-09-17T06:33:19.008Z,17.47
2017-09-17T06:35:46.829Z,15.57
2017-09-17T06:38:14.637Z,16.10
2017-09-17T06:40:42.463Z,17.47
2017-09-17T06:43:10.276Z,16.63
2017-09-17T06:45:38.112Z,16.40
2017-09-17T06:48:05.941Z,16.60
2017-09-17T06:50:33.776Z,15.47
2017-09-17T06:53:01.602Z,16.57
2017-09-17T06:55:29.457Z,16.10
2017-09-17T06:57:57.316Z,16.77
2017-09-17T07:00:25.147Z,15.33
2017-09-17T07:02:52.957Z,15.07
2017-09-17T07:05:20.753Z,15.90
2017-09-17T07:07:48.565Z,14.80
2017-09-17T07:10:16.393Z,15.47
2017-09-17T07:12:44.266Z,16.13
2017-09-17T07:15:12.121Z,17.10
2017-09-17T07:17:39.932Z,16.87
2017-09-17T07:20:07.793Z,16.23
2017-09-17T07:22:35.621Z,17.97
2017-09-17T07:25:03.424Z,16.60
2017-09-17T07:27:31.292Z,16.00
2017-09-17T07:29:59.125Z,16.20
2017-09-17T07:32:26.933Z,16.00
2017-09-17T07:34:54.778Z,16.77
2017-09-17T07:37:22.605Z,16.60
2017-09-17T07:39:50.507Z,17.60
2017-09-17T07:42:18.349Z,16.70
2017-09-17T07:44:46.157Z,18.07
2017-09-17T07:47:13.981Z,15.83
2017-09-17T07:49:41.809Z,16.57
2017-09-17T07:52:09.620Z,15.50
2017-09-17T07:54:37.432Z,17.23
2017-09-17T07:57:05.278Z,18.50
2017-09-17T07:59:33.229Z,16.77
2017-09-17T08:02:01.068Z,17.93
2017-09-17T08:04:28.941Z,18.60
2017-09-17T08:06:56.795Z,18.07
2017-09-17T08:09:25.384Z,18.73
2017-09-17T08:11:53.252Z,16.73
2017-09-17T08:14:21.120Z,17.67
2017-09-17T08:16:48.934Z,19.00
2017-09-17T08:19:16.794Z,15.67
2017-09-17T08:21:44.669Z,20.37
2017-09-17T08:24:12.508Z,16.40
2017-09-17T08:26:40.345Z,16.80
2017-09-17T08:29:08.175Z,16.87
2017-09-17T08:31:36.016Z,16.10
2017-09-17T08:34:03.837Z,16.50
2017-09-17T08:36:32.098Z,17.30
2017-09-17T08:38:59.965Z,15.80
2017-09-17T08:41:27.857Z,16.80
2017-09-17T08:43:55.681Z,17.70
2017-09-17T08:46:23.497Z,19.13
2017-09-17T08:48:51.317Z,19.50
2017-09-17T08:51:19.128Z,19.30
2017-09-17T08:53:47.006Z,18.10
2017-09-17T08:56:14.804Z,19.33
2017-09-17T08:58:42.625Z,18.23
2017-09-17T09:01:10.464Z,17.27
2017-09-17T09:03:38.332Z,18.50
2017-09-17T09:06:06.163Z,17.67
2017-09-17T09:08:33.987Z,18.87
2017-09-17T09:11:01.794Z,16.03
2017-09-17T09:13:29.682Z,17.47
2017-09-17T09:15:57.506Z,17.30
2017-09-17T09:18:25.333Z,16.23
2017-09-17T09:20:53.213Z,17.23
2017-09-17T09:23:21.029Z,17.47
2017-09-17T09:25:48.873Z,17.07
2017-09-17T09:28:16.728Z,16.20
2017-09-17T09:30:44.576Z,13.97
2017-09-17T09:33:12.374Z,14.47
2017-09-17T09:35:40.192Z,16.33
2017-09-17T09:38:08.348Z,15.83
2017-09-17T09:40:36.288Z,13.63
2017-09-17T09:43:04.185Z,14.73
2017-09-17T09:45:32.061Z,14.60
2017-09-17T09:47:59.923Z,14.30
2017-09-17T09:50:27.791Z,14.50
2017-09-17T09:52:55.615Z,14.90
2017-09-17T09:55:23.449Z,15.30
2017-09-17T09:57:51.313Z,13.70
2017-09-17T10:00:19.134Z,14.50
2017-09-17T10:02:47.009Z,12.77
2017-09-17T10:05:14.873Z,12.50
2017-09-17T10:07:42.705Z,12.40
2017-09-17T10:10:10.511Z,10.80
2017-09-17T10:12:38.360Z,12.23
2017-09-17T10:15:06.276Z,11.93
2017-09-17T10:17:34.141Z,11.27
2017-09-17T10:20:02.009Z,9.07
2017-09-17T10:22:30.028Z,7.43
2017-09-17T10:24:57.865Z,8.77
2017-09-17T10:27:25.680Z,7.87
2017-09-17T10:29:53.482Z,7.43
2017-09-17T10:32:21.332Z,7.50
2017-09-17T10:34:49.228Z,8.67
2017-09-17T10:37:17.054Z,6.87
2017-09-17T10:39:44.937Z,8.20
2017-09-17T10:42:12.756Z,8.00
2017-09-17T10:44:40.573Z,7.80
2017-09-17T10:47:08.428Z,7.07
2017-09-17T10:49:36.403Z,7.73
2017-09-17T10:52:04.365Z,8.50
2017-09-17T10:54:32.188Z,9.10
2017-09-17T10:57:00.057Z,8.00
2017-09-17T10:59:27.861Z,7.73
2017-09-17T11:01:55.680Z,9.00
2017-09-17T11:04:23.508Z,8.80
2017-09-17T11:06:51.357Z,9.07
2017-09-17T11:09:19.152Z,10.40
2017-09-17T11:11:46.964Z,11.40
2017-09-17T11:14:14.776Z,9.47
2017-09-17T11:16:42.568Z,10.70
2017-09-17T11:19:10.420Z,9.13
2017-09-17T11:21:38.262Z,10.20
2017-09-17T11:24:06.108Z,11.60
2017-09-17T11:26:33.900Z,12.13
2017-09-17T11:29:03.059Z,11.60
2017-09-17T11:31:30.917Z,12.53
2017-09-17T11:33:58.756Z,11.67
2017-09-17T11:36:26.596Z,13.23
2017-09-17T11:38:54.460Z,12.80
2017-09-17T11:41:22.307Z,14.30
2017-09-17T11:43:50.116Z,13.93
2017-09-17T11:46:17.937Z,14.00
2017-09-17T11:48:45.782Z,10.87
2017-09-17T11:51:13.597Z,11.70
2017-09-17T11:53:41.423Z,13.63
2017-09-17T11:56:09.241Z,13.83
2017-09-17T11:58:37.056Z,14.63
2017-09-17T12:01:04.841Z,7.97
2017-09-17T12:03:32.646Z,7.93
2017-09-17T12:06:00.457Z,10.50
2017-09-17T12:08:28.338Z,12.50
2017-09-17T12:10:56.142Z,13.87
2017-09-17T12:13:23.970Z,16.40
2017-09-17T12:15:51.810Z,16.60
2017-09-17T12:18:19.665Z,16.33
2017-09-17T12:20:47.490Z,16.70
2017-09-17T12:23:15.300Z,13.53
2017-09-17T12:25:43.106Z,11.43
2017-09-17T12:28:10.946Z,14.00
2017-09-17T12:30:38.753Z,16.33
2017-09-17T12:33:06.556Z,19.20
2017-09-17T12:35:34.389Z,19.23
2017-09-17T12:38:02.195Z,20.90
2017-09-17T12:40:29.998Z,18.67
2017-09-17T12:42:57.824Z,18.07
2017-09-17T12:45:25.653Z,18.10
2017-09-17T12:47:53.450Z,14.90
2017-09-17T12:50:21.252Z,10.70
2017-09-17T12:52:50.057Z,8.90
2017-09-17T12:55:17.882Z,8.50
2017-09-17T12:57:45.697Z,9.63
2017-09-17T13:00:13.511Z,9.20
2017-09-17T13:02:41.328Z,8.83
2017-09-17T13:05:09.176Z,12.43
2017-09-17T13:07:37.009Z,14.53
2017-09-17T13:10:04.822Z,14.43
2017-09-17T13:12:32.636Z,14.27
2017-09-17T13:15:00.504Z,12.40
2017-09-17T13:17:28.327Z,14.03
2017-09-17T13:19:56.143Z,14.10
2017-09-17T13:22:23.953Z,13.73
2017-09-17T13:24:51.768Z,13.80
2017-09-17T13:27:19.588Z,14.07
2017-09-17T13:29:48.461Z,13.70
2017-09-17T13:32:16.401Z,14.30
2017-09-17T13:34:44.257Z,16.00
2017-09-17T13:37:12.080Z,13.73
2017-09-17T13:39:39.913Z,15.40
2017-09-17T13:42:07.743Z,14.20
2017-09-17T13:44:35.581Z,14.80
2017-09-17T13:47:03.424Z,14.97
2017-09-17T13:49:31.277Z,14.53
2017-09-17T13:51:59.121Z,14.17
2017-09-17T13:54:26.933Z,16.30
2017-09-17T13:56:54.784Z,15.90
2017-09-17T13:59:22.620Z,15.93
2017-09-17T14:02:05.441Z,16.60
2017-09-17T14:04:35.124Z,16.93
2017-09-17T14:07:03.789Z,16.90
2017-09-17T14:09:31.632Z,16.43
2017-09-17T14:11:59.496Z,17.73
2017-09-17T14:14:27.312Z,17.60
2017-09-17T14:16:55.144Z,18.10
2017-09-17T14:19:23.085Z,17.73
2017-09-17T14:21:50.960Z,16.50
2017-09-17T14:24:18.840Z,15.43
2017-09-17T14:26:46.664Z,16.57
2017-09-17T14:29:14.513Z,15.63
2017-09-17T14:31:42.436Z,13.20
2017-09-17T14:34:11.155Z,15.37
2017-09-17T14:36:39.043Z,14.83
2017-09-17T14:39:06.928Z,15.20
2017-09-17T14:41:34.759Z,17.83
2017-09-17T14:44:02.633Z,16.93
2017-09-17T14:46:30.459Z,16.53
2017-09-17T14:48:58.261Z,15.77
2017-09-17T14:51:26.120Z,14.00
2017-09-17T14:53:53.967Z,15.07
2017-09-17T14:56:21.800Z,14.03
2017-09-17T14:58:49.618Z,14.00
2017-09-17T15:01:17.458Z,16.73
2017-09-17T15:03:45.285Z,14.47
2017-09-17T15:06:13.322Z,15.50
2017-09-17T15:08:41.172Z,15.80
2017-09-17T15:11:09.075Z,17.70
2017-09-17T15:13:36.973Z,16.43
2017-09-17T15:16:04.957Z,15.70
2017-09-17T15:18:32.788Z,15.87
2017-09-17T15:21:00.602Z,14.80
2017-09-17T15:23:28.438Z,14.63
2017-09-17T15:25:56.240Z,14.77
2017-09-17T15:28:24.068Z,14.40
2017-09-17T15:30:51.887Z,13.03
2017-09-17T15:33:19.726Z,12.37
2017-09-17T15:35:47.568Z,14.23
2017-09-17T15:38:15.951Z,16.87
2017-09-17T15:40:43.839Z,18.23
2017-09-17T15:43:11.710Z,18.90
2017-09-17T15:45:39.537Z,19.30
2017-09-17T15:48:07.376Z,15.93
2017-09-17T15:50:35.291Z,11.47
2017-09-17T15:53:03.224Z,10.97
2017-09-17T15:55:31.038Z,9.77
2017-09-17T15:57:58.973Z,10.30
2017-09-17T16:00:26.900Z,11.27
2017-09-17T16:02:55.622Z,14.10
2017-09-17T16:05:24.396Z,15.53
2017-09-17T16:07:53.134Z,15.70
2017-09-17T16:10:21.177Z,13.53
2017-09-17T16:12:48.989Z,15.40
2017-09-17T16:15:16.817Z,13.80
2017-09-17T16:17:44.621Z,12.40
2017-09-17T16:20:12.469Z,13.47
2017-09-17T16:22:40.297Z,14.20
2017-09-17T16:25:08.236Z,13.90
2017-09-17T16:27:36.104Z,14.17
2017-09-17T16:30:04.004Z,15.83
2017-09-17T16:32:31.841Z,16.67
2017-09-17T16:34:59.722Z,17.47
2017-09-17T16:37:27.557Z,17.83
2017-09-17T16:39:55.413Z,19.37
2017-09-17T16:42:23.220Z,19.77
2017-09-17T16:44:51.041Z,21.03
2017-09-17T16:47:18.895Z,21.47
2017-09-17T16:49:46.852Z,22.70
2017-09-17T16:52:14.700Z,22.47
2017-09-17T16:54:42.512Z,23.93
2017-09-17T16:57:10.381Z,23.47
2017-09-17T16:59:38.214Z,23.17
2017-09-17T17:02:06.349Z,25.03
2017-09-17T17:04:34.301Z,24.70
2017-09-17T17:07:02.225Z,23.23
2017-09-17T17:09:30.227Z,24.27
2017-09-17T17:11:58.096Z,24.00
2017-09-17T17:14:25.945Z,25.60
2017-09-17T17:16:53.792Z,26.17
2017-09-17T17:19:21.616Z,25.73
2017-09-17T17:21:49.480Z,26.03
2017-09-17T17:24:17.372Z,26.90
2017-09-17T17:26:45.220Z,26.60
2017-09-17T17:29:13.085Z,26.33
2017-09-17T17:31:40.921Z,26.50
2017-09-17T17:34:09.805Z,27.40
2017-09-17T17:36:37.652Z,26.90
2017-09-17T17:39:07.553Z,28.07
2017-09-17T17:41:35.407Z,27.83
2017-09-17T17:44:03.294Z,29.87
2017-09-17T17:46:31.229Z,27.60
2017-09-17T17:48:59.159Z,26.93
2017-09-17T17:51:27.336Z,28.20
2017-09-17T17:53:55.168Z,26.37
2017-09-17T17:56:22.997Z,25.90
2017-09-17T17:58:50.818Z,26.47
2017-09-17T18:01:18.644Z,27.80
2017-09-17T18:03:46.452Z,27.10
2017-09-17T18:06:14.273Z,26.87
2017-09-17T18:08:42.110Z,27.40
2017-09-17T18:11:09.961Z,26.20
2017-09-17T18:13:37.881Z,26.40
2017-09-17T18:16:05.732Z,23.60
2017-09-17T18:18:33.566Z,26.90
2017-09-17T18:21:01.385Z,29.37
2017-09-17T18:23:29.229Z,27.73
2017-09-17T18:25:57.052Z,27.87
2017-09-17T18:28:24.879Z,27.50
2017-09-17T18:30:52.709Z,25.50
2017-09-17T18:33:20.544Z,25.97
2017-09-17T18:35:48.393Z,24.90
2017-09-17T18:38:16.213Z,24.80
2017-09-17T18:40:44.133Z,26.50
2017-09-17T18:43:11.932Z,25.53
2017-09-17T18:45:39.756Z,25.27
2017-09-17T18:48:07.582Z,26.30
2017-09-17T18:50:41.826Z,26.67
2017-09-17T18:53:09.634Z,24.87
2017-09-17T18:55:37.461Z,26.93
2017-09-17T18:58:05.301Z,25.60
2017-09-17T19:00:33.125Z,26.60
2017-09-17T19:03:00.976Z,27.00
2017-09-17T19:05:28.804Z,27.00
2017-09-17T19:07:56.724Z,25.30
2017-09-17T19:10:24.541Z,26.33
2017-09-17T19:12:52.377Z,25.23
2017-09-17T19:15:20.208Z,25.40
2017-09-17T19:17:48.054Z,24.53
2017-09-17T19:20:15.892Z,25.60
2017-09-17T19:22:43.713Z,25.77
2017-09-17T19:25:11.756Z,23.47
2017-09-17T19:27:39.593Z,26.37
2017-09-17T19:30:07.412Z,24.20
2017-09-17T19:32:35.338Z,24.53
2017-09-17T19:35:03.201Z,24.53
2017-09-17T19:37:31.049Z,25.03
2017-09-17T19:39:58.916Z,22.90
2017-09-17T19:42:26.709Z,24.07
2017-09-17T19:44:54.540Z,24.80
2017-09-17T19:47:22.353Z,25.23
2017-09-17T19:49:50.178Z,27.80
2017-09-17T19:52:19.990Z,26.60
2017-09-17T19:54:47.903Z,31.03
2017-09-17T19:57:15.735Z,29.17
2017-09-17T19:59:43.557Z,31.50
2017-09-17T20:02:11.401Z,28.57
2017-09-17T20:04:39.238Z,27.53
2017-09-17T20:07:07.126Z,29.23
2017-09-17T20:09:34.969Z,27.57
2017-09-17T20:12:02.805Z,28.20
2017-09-17T20:14:30.666Z,27.77
2017-09-17T20:16:58.480Z,28.70
2017-09-17T20:19:26.378Z,27.20
2017-09-17T20:21:54.201Z,26.70
2017-09-17T20:24:22.018Z,26.17
2017-09-17T20:26:49.845Z,27.10
2017-09-17T20:29:17.723Z,27.10
2017-09-17T20:31:45.565Z,27.03
2017-09-17T20:34:13.352Z,27.80
2017-09-17T20:36:41.196Z,28.90
2017-09-17T20:39:09.008Z,27.17
2017-09-17T20:41:36.848Z,29.70
2017-09-17T20:44:04.668Z,30.40
2017-09-17T20:46:32.544Z,29.47
2017-09-17T20:49:00.348Z,29.73
2017-09-17T20:51:28.189Z,29.63
2017-09-17T20:53:56.004Z,30.40
2017-09-17T20:56:23.821Z,27.80
2017-09-17T20:58:51.637Z,29.97
2017-09-17T21:01:19.448Z,29.57
2017-09-17T21:03:47.260Z,29.13
2017-09-17T21:06:15.066Z,32.73
2017-09-17T21:08:42.901Z,27.50
2017-09-17T21:11:10.709Z,29.67
2017-09-17T21:13:38.522Z,31.20
2017-09-17T21:16:06.329Z,28.07
2017-09-17T21:18:34.167Z,29.40
2017-09-17T21:21:02.019Z,30.53
2017-09-17T21:23:29.884Z,27.80
2017-09-17T21:25:57.709Z,32.00
2017-09-17T21:28:25.553Z,28.43
2017-09-17T21:30:53.401Z,31.33
2017-09-17T21:33:21.332Z,29.90
2017-09-17T21:35:49.210Z,29.93
2017-09-17T21:38:17.054Z,31.40
2017-09-17T21:40:44.936Z,31.47
2017-09-17T21:43:12.806Z,30.97
2017-09-17T21:45:40.732Z,31.97
2017-09-17T21:48:08.594Z,29.97
2017-09-17T21:50:36.511Z,31.57
2017-09-17T21:53:04.331Z,31.47
2017-09-17T21:55:32.286Z,33.23
2017-09-17T21:58:00.167Z,30.47
2017-09-17T22:00:28.053Z,30.10
2017-09-17T22:02:56.019Z,30.77
2017-09-17T22:05:25.092Z,27.40
2017-09-17T22:07:52.960Z,30.87
2017-09-17T22:10:20.865Z,29.43
2017-09-17T22:12:48.766Z,29.10
2017-09-17T22:15:16.729Z,26.80
2017-09-17T22:17:44.651Z,25.97
2017-09-17T22:20:12.562Z,28.40
2017-09-17T22:22:40.473Z,29.00
2017-09-17T22:25:08.349Z,27.57
2017-09-17T22:27:36.273Z,26.60
2017-09-17T22:30:04.172Z,26.50
2017-09-17T22:32:32.085Z,25.63
2017-09-17T22:35:00.064Z,22.30
2017-09-17T22:37:27.932Z,22.97
2017-09-17T22:39:55.762Z,21.13
2017-09-17T22:42:23.738Z,21.13
2017-09-17T22:44:51.614Z,21.40
2017-09-17T22:47:19.479Z,22.07
2017-09-17T22:49:47.374Z,19.60
2017-09-17T22:52:15.252Z,19.90
2017-09-17T22:54:43.206Z,21.77
2017-09-17T22:57:11.104Z,19.87
2017-09-17T22:59:39.027Z,18.50
2017-09-17T23:02:06.869Z,19.60
2017-09-17T23:04:34.746Z,18.40
2017-09-17T23:07:02.713Z,18.83
2017-09-17T23:09:30.527Z,18.53
2017-09-17T23:11:58.328Z,18.80
2017-09-17T23:14:26.145Z,17.43
2017-09-17T23:16:53.965Z,18.90
2017-09-17T23:19:21.786Z,18.27
2017-09-17T23:21:49.599Z,19.20
2017-09-17T23:24:17.433Z,17.50
2017-09-17T23:26:45.264Z,19.30
2017-09-17T23:29:13.072Z,18.73
2017-09-17T23:31:40.876Z,16.67
2017-09-17T23:34:08.689Z,17.73
2017-09-17T23:36:36.521Z,18.77
2017-09-17T23:39:04.318Z,20.20
2017-09-17T23:41:32.142Z,17.17
2017-09-17T23:43:59.952Z,19.30
2017-09-17T23:46:27.790Z,18.30
2017-09-17T23:48:55.597Z,19.33
2017-09-17T23:51:23.425Z,20.43
2017-09-17T23:53:52.045Z,18.73
2017-09-17T23:56:19.976Z,19.27
2017-09-17T23:58:47.776Z,17.97
